This is the latest recevied weather packets stored in our database for station/object KF4UQS-14. If no packets are shown the sender has not sent any weather packets the latest 10 day(s).
| Time | Temp. | Humidity | Pressure | Rain* | Wind** | Luminosity | Snow |
|---|---|---|---|---|---|---|---|
| 1778286418 | 13.33° C | 74% | 1015.8 hPa | 0 mm | - | 0 W/m² | - |
| 1778286116 | 13.89° C | 73% | 1015.9 hPa | 0 mm | - | 0 W/m² | - |
| 1778285813 | 13.89° C | 72% | 1015.6 hPa | 0 mm | - | 0 W/m² | - |
| 1778285509 | 14.44° C | 69% | 1015.7 hPa | 0 mm | - | 0 W/m² | - |
| 1778285207 | 14.44° C | 69% | 1015.5 hPa | 0 mm | - | 1 W/m² | - |
| 1778284904 | 14.44° C | 68% | 1015.5 hPa | 0 mm | - | 2 W/m² | - |
| 1778284601 | 14.44° C | 67% | 1015.6 hPa | 0 mm | - | 4 W/m² | - |
| 1778284297 | 15° C | 67% | 1015.4 hPa | 0 mm | - | 7 W/m² | - |
| 1778283995 | 15° C | 67% | 1015.4 hPa | 0 mm | - | 10 W/m² | - |
| 1778283691 | 15° C | 65% | 1015.6 hPa | 0 mm | - | 13 W/m² | - |
| 1778283390 | 15.56° C | 65% | 1015.1 hPa | 0 mm | - | 18 W/m² | - |
| 1778283087 | 15.56° C | 64% | 1015.3 hPa | 0 mm | - | 23 W/m² | - |
| 1778282784 | 16.11° C | 64% | 1015.2 hPa | 0 mm | - | 37 W/m² | - |
| 1778282481 | 16.11° C | 64% | 1015.3 hPa | 0 mm | - | 47 W/m² | - |
| 1778282179 | 16.11° C | 63% | 1015.2 hPa | 0 mm | - | 57 W/m² | - |
| 1778281875 | 16.11° C | 65% | 1015.2 hPa | 0 mm | - | 65 W/m² | - |
| 1778281572 | 16.11° C | 64% | 1015.4 hPa | 0 mm | - | 71 W/m² | - |
| 1778281269 | 16.67° C | 63% | 1015.1 hPa | 0 mm | - | 51 W/m² | - |
| 1778280967 | 16.67° C | 62% | 1015 hPa | 0 mm | - | 78 W/m² | - |
| 1778280663 | 16.67° C | 62% | 1014.9 hPa | 0 mm | - | 77 W/m² | - |
| 1778280361 | 16.67° C | 62% | 1014.8 hPa | 0 mm | - | 115 W/m² | - |
| 1778280058 | 16.67° C | 61% | 1015 hPa | 0 mm | - | 85 W/m² | - |
| 1778279756 | 17.22° C | 61% | 1015.1 hPa | 0 mm | - | 83 W/m² | - |
| 1778279452 | 16.67° C | 60% | 1015.1 hPa | 0 mm | - | 136 W/m² | - |
| 1778279150 | 17.22° C | 60% | 1015.1 hPa | 0 mm | - | 97 W/m² | - |
* Rain latest hour (hover to see other rain measurements)
** Current wind speed in m/s (hover to see current wind gust speed)